Portada
METAR-TAF:

METAR-TAF

Aeroports :

Kirksville Regional Airport

Kirksville, Missouri, Estats Units d'Amèrica

latitud: 40-05-50N, longitud: 092-32-36W, altitud: 294 m

Observació

L'informe es va fer fa 24 minuts, a les 22:55 UTC
Vent 9 kt del Sud/Sud-Oest amb ràfegues de 17 kt
Temperatura 31°C
Humitat 55%
Pressió 1019 hPa
Visibilitat: 16.1 km
Cel clar

METAR: KIRK 212255Z AUTO 20009G17KT 10SM CLR 31/21 A3008 RMK AO2 SLP178 T03110211

Hora: 18:19 (23:19 UTC)


TAF: manca

Observacions i pronòstics meteorològics de més de 4000 aeroports (METAR i TAF).

Les estacions disponibles són els punts grocs i vermells al mapa.

Posi el ratolí al punt desitjat per veure el nom de l'estació.

Feu clic per veure les observacions i els pronòstics meteorològics.

Per canviar el mapa: feu clic els botons verds amb una creu de color negre per apropar; al botó verd amb un guió per allunyar la imatge; o en les fletxes verdes per a mapes adjacents.


METAR-TAF: